Flight Track Log - Related Links

Times and Time Zones

All times are in EDT time to prevent confusion due to time zone crossing. See the SLI2344 flight status page for this flight to view local times or setup timezone preferences in your user account.

Time Position Orientation Groundspeed Altitude Reporting Facility
EDT Latitude Longitude Course Direction KTS MPH feet Rate Location/Type
Fri 08:21:00 AM 20.8508 -103.3174 359° North  Level Estimated
Fri 08:22:00 AM 20.9605 -103.3195 359° North  Level Estimated
Fri 08:23:00 AM 21.0702 -103.3216 359° North  Level Estimated
Fri 08:24:00 AM 21.1798 -103.3237 359° North  Level Estimated
Fri 08:25:00 AM 21.2895 -103.3258 359° North  Level Estimated
Fri 08:26:00 AM 21.3992 -103.3279 359° North  Level Estimated
Fri 08:27:00 AM 21.5088 -103.3300 359° North  Level Estimated
Fri 08:28:00 AM 21.6185 -103.3322 359° North  Level Estimated
Fri 08:29:00 AM 21.7282 -103.3343 359° North  Level Estimated
Fri 08:30:00 AM 21.8379 -103.3364 359° North  Level Estimated
Fri 08:31:00 AM 21.9475 -103.3385 359° North  Level Estimated
Fri 08:32:00 AM 22.0572 -103.3406 359° North  Level Estimated
Fri 08:33:00 AM 22.1669 -103.3428 359° North  Level Estimated
Fri 08:34:00 AM 22.2765 -103.3449 359° North  Level Estimated
Fri 08:35:00 AM 22.3862 -103.3470 359° North  Level Estimated
Fri 08:36:00 AM 22.4959 -103.3492 359° North  Level Estimated
Fri 08:37:00 AM 22.6055 -103.3513 359° North  Level Estimated
Fri 08:38:00 AM 22.7152 -103.3535 359° North  Level Estimated
Fri 08:39:00 AM 22.8249 -103.3556 359° North  Level Estimated
Fri 08:40:00 AM 22.9345 -103.3578 359° North  Level Estimated
Fri 08:41:00 AM 23.0442 -103.3599 359° North  Level Estimated
Fri 08:42:00 AM 23.1539 -103.3621 359° North  Level Estimated
Fri 08:43:00 AM 23.2636 -103.3643 359° North  Level Estimated
Fri 08:44:00 AM 23.3732 -103.3664 359° North  Level Estimated
Fri 08:45:00 AM 23.4829 -103.3686 359° North  Level Estimated
Fri 08:46:00 AM 23.5926 -103.3708 359° North  Level Estimated
Fri 08:47:00 AM 23.7022 -103.3729 359° North  Level Estimated
Fri 08:48:00 AM 23.8119 -103.3751 359° North  Level Estimated
Fri 08:49:00 AM 23.9216 -103.3773 359° North  Level Estimated
Fri 08:50:00 AM 24.0312 -103.3795 359° North  Level Estimated
Fri 08:51:00 AM 24.1409 -103.3817 359° North  Level Estimated
Fri 08:52:00 AM 24.2506 -103.3839 359° North  Level Estimated
Fri 08:53:00 AM 24.3603 -103.3861 359° North  Level Estimated
Fri 08:54:00 AM 24.4699 -103.3883 359° North  Level Estimated
Fri 08:55:00 AM 24.5796 -103.3905 359° North  Level Estimated
Fri 08:56:00 AM 24.6893 -103.3927 359° North  Level Estimated
Fri 08:57:00 AM 24.7989 -103.3949 359° North  Level Estimated
Fri 08:58:00 AM 24.9086 -103.3971 359° North  Level Estimated
Fri 08:59:00 AM 25.0183 -103.3994 359° North  Level Estimated
Fri 09:00:00 AM 25.1280 -103.4016 359° North  Level Estimated
Fri 09:01:00 AM 25.2376 -103.4038 359° North  Level Estimated
Fri 09:02:00 AM 25.3473 -103.4061 359° North  Level Estimated
Fri 09:03:00 AM 25.4570 -103.4083 359° North  Level Estimated
Fri 09:04:00 AM 25.5666 -103.4106 359° North  Level Estimated
Fri 09:05:00 AM 25.5683 -103.4106 359° North  Level Estimated
Fri 09:06:00 AM 25.5683 -103.4106 234° Southwest  Level Estimated
Fri 09:07:00 AM 25.5683 -103.4106 234° Southwest  Level Estimated
Fri 09:08:00 AM 25.5683 -103.4106 234° Southwest  Level Estimated
Fri 09:09:00 AM 25.5683 -103.4106 234° Southwest  Level Estimated
Fri 09:10:00 AM 25.5683 -103.4106 234° Southwest  Level Estimated
Fri 09:11:00 AM 25.5683 -103.4106 234° Southwest  Level Estimated
Fri 09:12:00 AM 25.5683 -103.4106 234° Southwest  Level Estimated
Fri 09:13:00 AM 25.5683 -103.4106 234° Southwest  Level Estimated
Fri 09:14:00 AM 25.5683 -103.4106 234° Southwest  Level Estimated
Fri 09:15:00 AM 25.5683 -103.4106 234° Southwest  Level Estimated
Fri 09:16:00 AM 25.5683 -103.4106 234° Southwest  Level Estimated

Login

Don't have an account? Register now (free) for customized features, flight alerts, and more!